Decoded Metar for KHON (HURON in SD, USA) (IATA:HON) | Meteo·Mobile Aviation Weather
aviador You're here:

KHON Decoded Metar

HURON in SD, USA
Report Time2018-10-22 23:55:00
UTC Time2018-10-23 00:36:29
Flight Rules vfr VFR
Wind360° at 05 kt
W.Decomp.*RWY 35: 5.0 kt HW 0.3 kt RCW
RWY 30: 3.0 kt HW 4.0 kt RCW
Visibility9999 m
Phenomena:N/A
Clouds:N/A
Expected CloudBase > 5,200 ft AGL from Temp-Dew spread
CeilingNone
Temp10°C (ISA -2)
Dew Point-3°C (40% RH)
AAT5.8°C
QNH1024 hPa
Density Alt689 ft
Elevation1,280 ft
Report Wrong Elevation
Raw Report
KHON 222355Z AUTO 36005KT 10SM CLR 10/M03 A3023 RMK AO2 SLP248
T01001028 10183 20100 53014=

Extra information for KHON:More info

Metar Taf Metar & Taf Last 4 Metars F.Rules Stats Wind Profile Meteogram Temp Stats Airport Information Weather charts Add Link Nearby VenuesMetar ALERT Operation Metar Decoded Social comments

AIRNAV info for KHON